createdAt,value
2024-03-12T00:01:10.720Z,7.28
2024-03-12T00:03:44.672Z,7.28
2024-03-12T00:06:12.155Z,7.28
2024-03-12T00:08:40.627Z,7.28
2024-03-12T00:11:07.407Z,7.30
2024-03-12T00:13:35.254Z,7.31
2024-03-12T00:16:01.937Z,7.31
2024-03-12T00:18:28.849Z,7.32
2024-03-12T00:20:55.491Z,7.31
2024-03-12T00:23:23.495Z,7.31
2024-03-12T00:25:50.507Z,7.35
2024-03-12T00:28:17.609Z,7.32
2024-03-12T00:30:45.983Z,7.31
2024-03-12T00:33:12.900Z,7.32
2024-03-12T00:35:43.989Z,7.33
2024-03-12T00:38:11.487Z,7.32
2024-03-12T00:40:38.031Z,7.32
2024-03-12T00:43:07.145Z,7.31
2024-03-12T00:45:40.849Z,7.28
2024-03-12T00:48:14.133Z,7.28
2024-03-12T00:50:41.057Z,7.25
2024-03-12T00:53:09.076Z,7.24
2024-03-12T00:55:37.434Z,7.25
2024-03-12T00:58:08.625Z,7.25
2024-03-12T01:00:35.385Z,7.26
2024-03-12T01:03:02.465Z,7.28
2024-03-12T01:05:32.864Z,7.28
2024-03-12T01:08:01.540Z,7.28
2024-03-12T01:10:29.650Z,7.27
2024-03-12T01:12:57.911Z,7.27
2024-03-12T01:15:25.587Z,7.29
2024-03-12T01:17:56.445Z,7.28
2024-03-12T01:20:26.666Z,7.28
2024-03-12T01:22:55.256Z,7.28
2024-03-12T01:25:23.554Z,7.28
2024-03-12T01:27:53.299Z,7.28
2024-03-12T01:30:21.856Z,7.29
2024-03-12T01:32:49.173Z,7.31
2024-03-12T01:35:15.999Z,7.30
2024-03-12T01:37:46.566Z,7.30
2024-03-12T01:40:32.004Z,7.28
2024-03-12T01:43:07.786Z,7.28
2024-03-12T01:45:35.184Z,7.30
2024-03-12T01:48:10.795Z,7.29
2024-03-12T01:50:42.813Z,7.28
2024-03-12T01:53:10.942Z,7.26
2024-03-12T01:55:43.123Z,7.25
2024-03-12T01:58:16.170Z,7.24
2024-03-12T02:00:45.012Z,7.22
2024-03-12T02:03:11.571Z,7.22
2024-03-12T02:05:38.029Z,7.23
2024-03-12T02:08:04.883Z,7.23
2024-03-12T02:10:31.337Z,7.22
2024-03-12T02:12:58.038Z,7.20
2024-03-12T02:15:24.968Z,7.23
2024-03-12T02:17:53.533Z,7.23
2024-03-12T02:20:22.440Z,7.24
2024-03-12T02:22:53.695Z,7.23
2024-03-12T02:25:20.295Z,7.22
2024-03-12T02:27:46.830Z,7.22
2024-03-12T02:30:13.725Z,7.22
2024-03-12T02:32:40.241Z,7.23
2024-03-12T02:35:11.372Z,7.23
2024-03-12T02:37:42.093Z,7.22
2024-03-12T02:40:14.306Z,7.23
2024-03-12T02:45:30.129Z,7.25
2024-03-12T02:47:56.813Z,7.25
2024-03-12T02:50:25.500Z,7.24
2024-03-12T02:52:52.021Z,7.22
2024-03-12T02:55:20.334Z,7.21
2024-03-12T02:57:49.092Z,7.21
2024-03-12T03:00:16.497Z,7.20
2024-03-12T03:02:44.103Z,7.20
2024-03-12T03:05:11.179Z,7.20
2024-03-12T03:07:38.038Z,7.21
2024-03-12T03:10:05.219Z,7.22
2024-03-12T03:12:32.071Z,7.22
2024-03-12T03:14:58.660Z,7.18
2024-03-12T03:17:25.417Z,7.19
2024-03-12T03:19:52.043Z,7.21
2024-03-12T03:22:18.553Z,7.23
2024-03-12T03:24:45.257Z,7.21
2024-03-12T03:27:11.799Z,7.19
2024-03-12T03:29:38.723Z,7.16
2024-03-12T03:32:07.817Z,7.16
2024-03-12T03:34:34.478Z,7.18
2024-03-12T03:37:01.109Z,7.16
2024-03-12T03:39:29.462Z,7.16
2024-03-12T03:41:57.290Z,7.16
2024-03-12T03:44:24.520Z,7.15
2024-03-12T03:46:51.370Z,7.15
2024-03-12T03:49:18.177Z,7.17
2024-03-12T03:51:44.869Z,7.19
2024-03-12T03:54:11.755Z,7.18
2024-03-12T03:56:38.769Z,7.14
2024-03-12T03:59:06.661Z,7.14
2024-03-12T04:01:34.806Z,7.12
2024-03-12T04:04:12.337Z,7.12
2024-03-12T04:06:39.909Z,7.09
2024-03-12T04:09:06.595Z,7.08
2024-03-12T04:11:34.924Z,7.07
2024-03-12T04:14:03.863Z,7.09
2024-03-12T04:16:33.527Z,7.08
2024-03-12T04:19:03.161Z,7.08
2024-03-12T04:21:29.863Z,7.09
2024-03-12T04:23:56.589Z,7.07
2024-03-12T04:26:23.335Z,7.06
2024-03-12T04:28:49.996Z,7.09
2024-03-12T04:31:16.650Z,7.11
2024-03-12T04:33:43.562Z,7.12
2024-03-12T04:36:14.976Z,7.11
2024-03-12T04:38:41.599Z,7.12
2024-03-12T04:41:08.300Z,7.10
2024-03-12T04:43:34.939Z,7.07
2024-03-12T04:46:01.531Z,7.07
2024-03-12T04:48:28.182Z,7.08
2024-03-12T04:50:54.779Z,7.03
2024-03-12T04:53:23.562Z,7.02
2024-03-12T04:55:50.167Z,7.02
2024-03-12T04:58:16.818Z,7.03
2024-03-12T05:00:43.743Z,7.04
2024-03-12T05:03:10.435Z,7.07
2024-03-12T05:05:38.103Z,7.09
2024-03-12T05:08:04.955Z,7.06
2024-03-12T05:10:31.548Z,7.06
2024-03-12T05:12:58.124Z,7.04
2024-03-12T05:15:24.626Z,7.02
2024-03-12T05:17:51.285Z,7.02
2024-03-12T05:20:24.347Z,7.03
2024-03-12T05:22:51.067Z,7.04
2024-03-12T05:25:25.479Z,7.05
2024-03-12T05:27:52.210Z,7.02
2024-03-12T05:30:21.924Z,6.99
2024-03-12T05:32:50.060Z,6.97
2024-03-12T05:35:26.288Z,6.96
2024-03-12T05:38:04.993Z,6.96
2024-03-12T05:41:06.677Z,6.96
2024-03-12T05:43:51.665Z,6.96
2024-03-12T05:46:36.995Z,6.96
2024-03-12T05:49:03.905Z,6.92
2024-03-12T05:51:33.163Z,6.90
2024-03-12T05:54:00.068Z,6.87
2024-03-12T05:56:27.724Z,6.88
2024-03-12T05:58:54.306Z,6.90
2024-03-12T06:01:22.114Z,6.89
2024-03-12T06:03:50.819Z,6.90
2024-03-12T06:06:18.982Z,6.89
2024-03-12T06:08:46.287Z,6.91
2024-03-12T06:11:13.467Z,6.90
2024-03-12T06:13:40.528Z,6.91
2024-03-12T06:16:08.378Z,6.89
2024-03-12T06:18:36.030Z,6.89
2024-03-12T06:21:02.665Z,6.89
2024-03-12T06:23:29.835Z,6.89
2024-03-12T06:25:56.532Z,6.91
2024-03-12T06:28:26.982Z,6.91
2024-03-12T06:30:53.705Z,6.90
2024-03-12T06:33:20.372Z,6.88
2024-03-12T06:35:48.619Z,6.89
2024-03-12T06:38:16.758Z,6.91
2024-03-12T06:40:44.400Z,6.90
2024-03-12T06:43:14.807Z,6.93
2024-03-12T06:45:42.004Z,6.93
2024-03-12T06:48:08.705Z,6.90
2024-03-12T06:50:36.033Z,6.91
2024-03-12T06:53:02.676Z,6.90
2024-03-12T06:55:29.385Z,6.90
2024-03-12T06:58:01.515Z,6.90
2024-03-12T07:00:38.678Z,6.89
2024-03-12T07:03:05.890Z,6.91
2024-03-12T07:05:37.307Z,6.93
2024-03-12T07:08:07.326Z,6.95
2024-03-12T07:10:36.653Z,6.99
2024-03-12T07:13:05.836Z,7.04
2024-03-12T07:15:33.302Z,7.08
2024-03-12T07:18:00.106Z,7.10
2024-03-12T07:20:29.211Z,7.12
2024-03-12T07:22:58.073Z,7.09
2024-03-12T07:25:26.355Z,7.12
2024-03-12T07:27:57.465Z,7.16
2024-03-12T07:30:26.147Z,7.15
2024-03-12T07:32:54.060Z,7.17
2024-03-12T07:35:20.851Z,7.19
2024-03-12T07:37:47.451Z,7.21
2024-03-12T07:40:16.852Z,7.22
2024-03-12T07:42:45.161Z,7.26
2024-03-12T07:45:14.068Z,7.30
2024-03-12T07:47:40.856Z,7.30
2024-03-12T07:50:09.411Z,7.30
2024-03-12T07:52:36.855Z,7.33
2024-03-12T07:55:03.967Z,7.33
2024-03-12T07:57:34.562Z,7.32
2024-03-12T08:00:01.268Z,7.34
2024-03-12T08:02:31.160Z,7.35
2024-03-12T08:04:58.654Z,7.40
2024-03-12T08:07:25.236Z,7.39
2024-03-12T08:09:52.512Z,7.37
2024-03-12T08:12:20.761Z,7.39
2024-03-12T08:14:47.585Z,7.36
2024-03-12T08:17:14.311Z,7.38
2024-03-12T08:19:41.934Z,7.40
2024-03-12T08:22:09.732Z,7.39
2024-03-12T08:24:38.655Z,7.43
2024-03-12T08:27:07.914Z,7.46
2024-03-12T08:29:34.717Z,7.44
2024-03-12T08:32:01.690Z,7.46
2024-03-12T08:34:28.739Z,7.52
2024-03-12T08:36:56.741Z,7.54
2024-03-12T08:39:23.803Z,7.49
2024-03-12T08:41:50.433Z,7.47
2024-03-12T08:44:17.733Z,7.49
2024-03-12T08:46:44.568Z,7.51
2024-03-12T08:49:12.897Z,7.51
2024-03-12T08:51:40.673Z,7.48
2024-03-12T08:54:10.373Z,7.49
2024-03-12T08:56:37.662Z,7.46
2024-03-12T08:59:10.149Z,7.43
2024-03-12T09:01:36.991Z,7.43
2024-03-12T09:04:04.045Z,7.39
2024-03-12T09:06:33.537Z,7.37
2024-03-12T09:09:00.197Z,7.29
2024-03-12T09:11:27.999Z,7.28
2024-03-12T09:13:55.300Z,7.28
2024-03-12T09:16:23.239Z,7.30
2024-03-12T09:18:50.020Z,7.30
2024-03-12T09:21:16.754Z,7.29
2024-03-12T09:23:48.748Z,7.33
2024-03-12T09:26:24.270Z,7.35
2024-03-12T09:28:51.591Z,7.35
2024-03-12T09:31:20.027Z,7.35
2024-03-12T09:33:46.901Z,7.34
2024-03-12T09:36:15.688Z,7.31
2024-03-12T09:38:45.167Z,7.35
2024-03-12T09:41:14.275Z,7.37
2024-03-12T09:43:45.054Z,7.45
2024-03-12T09:46:17.538Z,7.44
2024-03-12T09:48:46.265Z,7.43
2024-03-12T09:51:13.375Z,7.43
2024-03-12T09:53:42.325Z,7.42
2024-03-12T09:56:11.570Z,7.45
2024-03-12T09:58:39.155Z,7.47
2024-03-12T10:01:05.751Z,7.46
2024-03-12T10:03:32.858Z,7.44
2024-03-12T10:05:59.678Z,7.43
2024-03-12T10:08:29.510Z,7.51
2024-03-12T10:10:57.334Z,7.51
2024-03-12T10:13:25.042Z,7.42
2024-03-12T10:15:57.770Z,7.41
2024-03-12T10:18:28.019Z,7.44
2024-03-12T10:20:57.216Z,7.44
2024-03-12T10:23:27.101Z,7.45
2024-03-12T10:26:17.763Z,7.49
2024-03-12T10:28:51.980Z,7.53
2024-03-12T10:31:21.479Z,7.57
2024-03-12T10:33:51.781Z,7.61
2024-03-12T10:36:33.099Z,7.68
2024-03-12T10:39:00.380Z,7.78
2024-03-12T10:41:27.579Z,7.82
2024-03-12T10:44:08.713Z,7.88
2024-03-12T10:46:36.474Z,7.94
2024-03-12T10:49:04.088Z,7.96
2024-03-12T10:51:31.168Z,7.97
2024-03-12T10:53:58.824Z,7.97
2024-03-12T10:56:25.531Z,7.98
2024-03-12T10:58:55.814Z,7.96
2024-03-12T11:01:24.047Z,7.91
2024-03-12T11:03:57.404Z,7.91
2024-03-12T11:06:26.639Z,7.94
2024-03-12T11:08:53.371Z,7.97
2024-03-12T11:11:20.207Z,7.98
2024-03-12T11:13:47.611Z,7.99
2024-03-12T11:16:19.135Z,8.06
2024-03-12T11:18:46.744Z,8.08
2024-03-12T11:21:14.848Z,8.12
2024-03-12T11:23:42.016Z,8.09
2024-03-12T11:26:08.671Z,8.15
2024-03-12T11:28:48.714Z,8.17
2024-03-12T11:31:17.066Z,8.18
2024-03-12T11:33:50.693Z,8.24
2024-03-12T11:36:33.643Z,8.26
2024-03-12T11:39:12.748Z,8.24
2024-03-12T11:41:58.043Z,8.32
2024-03-12T11:44:43.889Z,8.48
2024-03-12T11:47:12.099Z,8.81
2024-03-12T11:49:38.990Z,9.14
2024-03-12T11:52:08.075Z,9.35
2024-03-12T11:54:42.089Z,9.45
2024-03-12T11:57:28.317Z,9.66
2024-03-12T11:59:57.740Z,9.61
2024-03-12T12:02:24.639Z,9.54
2024-03-12T12:04:52.575Z,9.45
2024-03-12T12:07:20.462Z,9.33
2024-03-12T12:09:48.487Z,9.22
2024-03-12T12:12:15.601Z,9.17
2024-03-12T12:14:44.438Z,9.14
2024-03-12T12:17:12.168Z,9.11
2024-03-12T12:19:43.033Z,9.13
2024-03-12T12:22:10.166Z,9.10
2024-03-12T12:24:40.300Z,9.09
2024-03-12T12:27:07.260Z,9.09
2024-03-12T12:29:35.079Z,9.09
2024-03-12T12:32:02.393Z,9.08
2024-03-12T12:34:30.416Z,9.12
2024-03-12T12:36:58.218Z,9.19
2024-03-12T12:39:35.866Z,9.23
2024-03-12T12:42:08.469Z,9.26
2024-03-12T12:44:35.869Z,9.32
2024-03-12T12:47:04.209Z,9.41
2024-03-12T12:49:33.476Z,9.44
2024-03-12T12:52:01.962Z,9.49
2024-03-12T12:54:28.887Z,9.46
2024-03-12T12:57:00.966Z,9.40
2024-03-12T12:59:33.994Z,9.38
2024-03-12T13:02:16.449Z,9.43
2024-03-12T13:04:43.157Z,9.62
2024-03-12T13:07:10.546Z,9.79
2024-03-12T13:09:37.653Z,9.75
2024-03-12T13:12:09.217Z,9.71
2024-03-12T13:14:38.065Z,9.68
2024-03-12T13:17:06.589Z,9.66
2024-03-12T13:19:33.976Z,9.62
2024-03-12T13:22:01.926Z,9.63
2024-03-12T13:24:31.016Z,9.64
2024-03-12T13:26:59.265Z,9.65
2024-03-12T13:29:26.819Z,9.68
2024-03-12T13:31:54.732Z,9.76
2024-03-12T13:34:21.959Z,9.79
2024-03-12T13:36:49.155Z,9.84
2024-03-12T13:39:16.575Z,9.89
2024-03-12T13:41:43.347Z,9.95
2024-03-12T13:44:10.025Z,9.90
2024-03-12T13:46:41.388Z,9.90
2024-03-12T13:49:14.665Z,9.93
2024-03-12T13:51:43.750Z,9.92
2024-03-12T13:54:10.870Z,9.95
2024-03-12T13:56:38.016Z,9.96
2024-03-12T13:59:05.338Z,9.99
2024-03-12T14:01:32.390Z,10.03
2024-03-12T14:03:59.166Z,9.97
2024-03-12T14:06:25.839Z,9.89
2024-03-12T14:08:52.498Z,9.85
2024-03-12T14:11:19.310Z,9.84
2024-03-12T14:13:46.417Z,9.83
2024-03-12T14:16:13.275Z,9.85
2024-03-12T14:18:40.108Z,9.81
2024-03-12T14:21:07.197Z,9.82
2024-03-12T14:23:33.815Z,9.79
2024-03-12T14:26:00.514Z,9.76
2024-03-12T14:28:30.996Z,9.73
2024-03-12T14:31:00.068Z,9.72
2024-03-12T14:33:29.528Z,9.68
2024-03-12T14:35:56.631Z,9.68
2024-03-12T14:38:24.058Z,9.72
2024-03-12T14:40:50.994Z,9.74
2024-03-12T14:43:17.859Z,9.79
2024-03-12T14:45:47.482Z,9.88
2024-03-12T14:48:14.819Z,9.94
2024-03-12T14:50:42.066Z,10.01
2024-03-12T14:53:09.193Z,10.02
2024-03-12T14:55:35.978Z,10.08
2024-03-12T14:58:02.702Z,10.09
2024-03-12T15:00:29.840Z,10.13
2024-03-12T15:02:56.963Z,10.10
2024-03-12T15:05:24.868Z,10.06
2024-03-12T15:07:51.535Z,10.05
2024-03-12T15:10:18.218Z,10.06
2024-03-12T15:12:45.150Z,10.06
2024-03-12T15:15:13.028Z,10.04
2024-03-12T15:17:41.353Z,10.03
2024-03-12T15:20:27.064Z,10.02
2024-03-12T15:22:53.696Z,10.02
2024-03-12T15:25:20.732Z,10.01
2024-03-12T15:27:49.949Z,10.04
2024-03-12T15:30:17.789Z,10.06
2024-03-12T15:32:47.113Z,10.03
2024-03-12T15:35:14.950Z,10.01
2024-03-12T15:37:43.256Z,9.99
2024-03-12T15:40:10.447Z,9.96
2024-03-12T15:42:40.136Z,9.97
2024-03-12T15:45:12.124Z,10.01
2024-03-12T15:47:40.859Z,10.00
2024-03-12T15:50:08.647Z,9.97
2024-03-12T15:52:35.399Z,9.96
2024-03-12T15:55:02.996Z,9.96
2024-03-12T15:57:30.877Z,9.94
2024-03-12T15:59:57.788Z,9.92
2024-03-12T16:02:24.508Z,9.91
2024-03-12T16:04:51.124Z,9.88
2024-03-12T16:07:17.771Z,9.85
2024-03-12T16:09:45.020Z,9.83
2024-03-12T16:12:14.399Z,9.82
2024-03-12T16:14:42.130Z,9.78
2024-03-12T16:17:09.326Z,9.75
2024-03-12T16:19:36.113Z,9.74
2024-03-12T16:22:02.785Z,9.75
2024-03-12T16:24:32.405Z,9.71
2024-03-12T16:26:59.720Z,9.68
2024-03-12T16:29:27.756Z,9.66
2024-03-12T16:31:54.686Z,9.65
2024-03-12T16:34:21.671Z,9.65
2024-03-12T16:36:48.286Z,9.65
2024-03-12T16:39:14.838Z,9.62
2024-03-12T16:41:42.050Z,9.59
2024-03-12T16:44:08.719Z,9.54
2024-03-12T16:46:35.623Z,9.51
2024-03-12T16:49:03.077Z,9.49
2024-03-12T16:51:29.825Z,9.45
2024-03-12T16:53:56.609Z,9.40
2024-03-12T16:56:26.511Z,9.35
2024-03-12T16:58:53.581Z,9.33
2024-03-12T17:01:21.504Z,9.32
2024-03-12T17:03:48.664Z,9.27
2024-03-12T17:06:17.302Z,9.27
2024-03-12T17:08:44.264Z,9.23
2024-03-12T17:11:11.342Z,9.21
2024-03-12T17:13:38.134Z,9.21
2024-03-12T17:16:07.975Z,9.21
2024-03-12T17:18:35.924Z,9.24
2024-03-12T17:21:03.749Z,9.22
2024-03-12T17:23:31.269Z,9.20
2024-03-12T17:25:58.695Z,9.15
2024-03-12T17:28:25.610Z,9.17
2024-03-12T17:30:52.659Z,9.14
2024-03-12T17:33:19.766Z,9.14
2024-03-12T17:35:48.592Z,9.11
2024-03-12T17:38:17.913Z,9.09
2024-03-12T17:40:47.944Z,9.05
2024-03-12T17:43:15.034Z,9.05
2024-03-12T17:45:42.309Z,9.05
2024-03-12T17:48:10.030Z,9.03
2024-03-12T17:50:37.043Z,9.03
2024-03-12T17:53:07.227Z,9.03
2024-03-12T17:55:35.769Z,9.02
2024-03-12T17:58:05.009Z,9.00
2024-03-12T18:00:34.552Z,8.97
2024-03-12T18:03:01.491Z,8.95
2024-03-12T18:05:28.349Z,8.96
2024-03-12T18:07:56.888Z,8.94
2024-03-12T18:10:26.712Z,8.94
2024-03-12T18:12:53.782Z,8.90
2024-03-12T18:15:21.442Z,8.87
2024-03-12T18:17:48.601Z,8.87
2024-03-12T18:20:30.840Z,8.84
2024-03-12T18:22:57.677Z,8.83
2024-03-12T18:25:24.430Z,8.80
2024-03-12T18:27:54.388Z,8.78
2024-03-12T18:30:21.645Z,8.80
2024-03-12T18:32:51.209Z,8.74
2024-03-12T18:35:20.000Z,8.72
2024-03-12T18:37:46.867Z,8.70
2024-03-12T18:40:18.806Z,8.69
2024-03-12T18:42:47.333Z,8.68
2024-03-12T18:45:18.842Z,8.67
2024-03-12T18:47:48.074Z,8.64
2024-03-12T18:50:15.690Z,8.61
2024-03-12T18:52:46.443Z,8.58
2024-03-12T18:55:14.136Z,8.58
2024-03-12T18:57:41.860Z,8.55
2024-03-12T19:00:18.942Z,8.56
2024-03-12T19:02:49.647Z,8.54
2024-03-12T19:05:19.420Z,8.52
2024-03-12T19:07:47.266Z,8.52
2024-03-12T19:10:15.379Z,8.51
2024-03-12T19:12:43.063Z,8.52
2024-03-12T19:15:11.932Z,8.50
2024-03-12T19:17:44.034Z,8.49
2024-03-12T19:20:19.356Z,8.47
2024-03-12T19:22:51.028Z,8.44
2024-03-12T19:25:19.753Z,8.41
2024-03-12T19:27:49.520Z,8.43
2024-03-12T19:30:21.544Z,8.45
2024-03-12T19:32:51.377Z,8.44
2024-03-12T19:35:19.014Z,8.44
2024-03-12T19:37:49.932Z,8.44
2024-03-12T19:40:23.487Z,8.42
2024-03-12T19:42:50.924Z,8.41
2024-03-12T19:45:19.781Z,8.41
2024-03-12T19:47:47.700Z,8.41
2024-03-12T19:50:16.441Z,8.39
2024-03-12T19:52:47.347Z,8.39
2024-03-12T19:55:19.543Z,8.37
2024-03-12T19:57:51.804Z,8.35
2024-03-12T20:00:20.097Z,8.35
2024-03-12T20:02:48.200Z,8.34
2024-03-12T20:05:20.488Z,8.33
2024-03-12T20:07:48.724Z,8.35
2024-03-12T20:10:20.575Z,8.35
2024-03-12T20:12:56.581Z,8.33
2024-03-12T20:15:24.643Z,8.32
2024-03-12T20:17:54.311Z,8.32
2024-03-12T20:20:23.806Z,8.31
2024-03-12T20:22:54.192Z,8.31
2024-03-12T20:25:23.026Z,8.33
2024-03-12T20:27:55.287Z,8.33
2024-03-12T20:30:27.998Z,8.31
2024-03-12T20:33:00.393Z,8.30
2024-03-12T20:35:32.781Z,8.29
2024-03-12T20:37:59.641Z,8.31
2024-03-12T20:40:27.550Z,8.30
2024-03-12T20:42:56.686Z,8.30
2024-03-12T20:45:23.537Z,8.31
2024-03-12T20:47:50.305Z,8.31
2024-03-12T20:50:20.201Z,8.30
2024-03-12T20:52:47.587Z,8.28
2024-03-12T20:55:17.451Z,8.27
2024-03-12T20:57:48.279Z,8.26
2024-03-12T21:00:24.867Z,8.26
2024-03-12T21:02:53.109Z,8.24
2024-03-12T21:05:20.125Z,8.23
2024-03-12T21:07:46.838Z,8.23
2024-03-12T21:10:13.527Z,8.21
2024-03-12T21:12:43.128Z,8.20
2024-03-12T21:15:09.988Z,8.20
2024-03-12T21:17:36.529Z,8.19
2024-03-12T21:20:22.047Z,8.18
2024-03-12T21:22:49.798Z,8.20
2024-03-12T21:25:21.690Z,8.20
2024-03-12T21:27:54.634Z,8.21
2024-03-12T21:30:25.175Z,8.21
2024-03-12T21:32:53.692Z,8.20
2024-03-12T21:35:20.556Z,8.17
2024-03-12T21:37:47.559Z,8.16
2024-03-12T21:40:14.383Z,8.16
2024-03-12T21:42:44.643Z,8.18
2024-03-12T21:45:12.432Z,8.18
2024-03-12T21:47:41.534Z,8.16
2024-03-12T21:50:15.679Z,8.18
2024-03-12T21:52:43.264Z,8.18
2024-03-12T21:55:12.069Z,8.19
2024-03-12T21:57:40.179Z,8.19
2024-03-12T22:00:20.570Z,8.20
2024-03-12T22:02:49.215Z,8.18
2024-03-12T22:05:17.923Z,8.15
2024-03-12T22:07:45.666Z,8.15
2024-03-12T22:10:13.743Z,8.15
2024-03-12T22:12:42.280Z,8.15
2024-03-12T22:15:12.503Z,8.16
2024-03-12T22:17:39.664Z,8.19
2024-03-12T22:20:06.867Z,8.19
2024-03-12T22:22:34.006Z,8.20
2024-03-12T22:25:00.919Z,8.21
2024-03-12T22:27:29.365Z,8.20
2024-03-12T22:29:56.136Z,8.19
2024-03-12T22:32:26.821Z,8.20
2024-03-12T22:34:53.670Z,8.22
2024-03-12T22:37:20.372Z,8.21
2024-03-12T22:39:47.872Z,8.24
2024-03-12T22:42:14.836Z,8.23
2024-03-12T22:44:41.663Z,8.22
2024-03-12T22:47:09.158Z,8.18
2024-03-12T22:49:36.931Z,8.19
2024-03-12T22:52:06.476Z,8.19
2024-03-12T22:54:34.143Z,8.19
2024-03-12T22:57:01.378Z,8.19
2024-03-12T22:59:28.497Z,8.20
2024-03-12T23:01:56.984Z,8.19
2024-03-12T23:04:25.298Z,8.19
2024-03-12T23:06:52.261Z,8.20
2024-03-12T23:09:20.772Z,8.22
2024-03-12T23:11:47.430Z,8.22
2024-03-12T23:14:14.943Z,8.23
2024-03-12T23:16:41.520Z,8.23
2024-03-12T23:19:10.356Z,8.22
2024-03-12T23:21:36.869Z,8.22
2024-03-12T23:24:04.957Z,8.22
2024-03-12T23:26:31.690Z,8.22
2024-03-12T23:28:59.535Z,8.24
2024-03-12T23:31:26.725Z,8.22
2024-03-12T23:33:56.546Z,8.22
2024-03-12T23:36:28.751Z,8.25
2024-03-12T23:38:58.907Z,8.24
2024-03-12T23:41:25.529Z,8.23
2024-03-12T23:43:54.060Z,8.24
2024-03-12T23:46:21.624Z,8.24
2024-03-12T23:48:49.212Z,8.25
2024-03-12T23:51:15.818Z,8.24
2024-03-12T23:53:42.698Z,8.22
2024-03-12T23:56:09.238Z,8.22
2024-03-12T23:58:38.108Z,8.22
